Time;durP1;ratioP1;P1;durP2;ratioP2;P2;SDS_P1;SDS_P2;PMS_P1;PMS_P2;Temp;Humidity;BMP_temperature;BMP_pressure;BME280_temperature;BME280_humidity;BME280_pressure;Samples;Min_cycle;Max_cycle;Signal;HPM_P1;HPM_P2
2022/08/15 00:01:41;;;;;;;6.45;2.30;;;;;;;22.95;50.66;97901.25;5125399;27;20051;-76
2022/08/15 00:04:08;;;;;;;6.60;2.35;;;;;;;22.91;50.95;97921.56;5129634;27;20047;-76
2022/08/15 00:06:40;;;;;;;12.73;2.50;;;;;;;22.87;52.24;97899.16;5120845;27;20043;-76
2022/08/15 00:09:12;;;;;;;3.03;2.05;;;;;;;22.77;53.79;97918.69;5132639;27;20043;-76
2022/08/15 00:11:41;;;;;;;5.70;2.30;;;;;;;22.77;53.96;97932.53;5123756;27;20053;-76
2022/08/15 00:14:10;;;;;;;5.97;2.28;;;;;;;22.76;54.33;97936.41;5128018;27;20200;-76
2022/08/15 00:16:40;;;;;;;7.05;2.30;;;;;;;22.52;58.25;97919.78;5132582;27;20118;-76
2022/08/15 00:19:09;;;;;;;5.35;2.40;;;;;;;22.53;59.34;97927.81;5130825;27;20050;-77
2022/08/15 00:21:39;;;;;;;6.43;2.38;;;;;;;22.50;61.53;97950.53;5131566;27;20051;-76
2022/08/15 00:24:06;;;;;;;4.43;2.40;;;;;;;22.36;63.04;97930.22;5115139;27;20039;-76
2022/08/15 00:26:34;;;;;;;2.92;2.10;;;;;;;22.05;63.79;97898.06;5121763;27;20072;-76
2022/08/15 00:29:01;;;;;;;4.50;2.65;;;;;;;21.76;67.89;97891.72;5121522;27;20501;-76
2022/08/15 00:31:31;;;;;;;3.83;2.30;;;;;;;21.73;69.60;97927.13;5123186;27;20051;-76
2022/08/15 00:33:58;;;;;;;4.25;2.92;;;;;;;21.54;73.81;97913.16;5117159;27;20058;-76
2022/08/15 00:36:24;;;;;;;6.57;2.30;;;;;;;21.47;74.65;97920.91;5112566;27;20050;-76
2022/08/15 00:38:51;;;;;;;11.80;2.70;;;;;;;21.46;72.97;97922.03;5113244;27;20051;-76
2022/08/15 00:44:08;;;;;;;4.88;2.50;;;;;;;21.38;74.71;97928.97;5112031;28;20429;-76
2022/08/15 00:46:35;;;;;;;5.45;2.78;;;;;;;21.39;73.22;97932.56;5114771;27;20054;-76
2022/08/15 00:49:01;;;;;;;5.75;2.67;;;;;;;21.31;74.12;97922.94;5119922;27;20047;-76
2022/08/15 00:51:31;;;;;;;4.50;2.70;;;;;;;21.32;70.73;97916.31;5114365;27;20495;-76
2022/08/15 00:54:04;;;;;;;3.55;2.30;;;;;;;21.39;70.70;97925.13;5115476;27;20040;-76
2022/08/15 00:56:34;;;;;;;4.10;2.63;;;;;;;21.32;69.14;97923.78;5121872;27;20055;-76
2022/08/15 00:59:04;;;;;;;6.72;2.50;;;;;;;21.35;69.36;97925.97;5112653;27;20059;-76
2022/08/15 01:01:31;;;;;;;6.40;2.53;;;;;;;21.45;66.95;97925.06;5115437;27;20167;-76
2022/08/15 01:03:58;;;;;;;5.80;2.60;;;;;;;21.46;67.08;97915.69;5126606;27;20039;-76
2022/08/15 01:06:26;;;;;;;3.92;2.60;;;;;;;21.61;65.83;97934.13;5115659;27;20129;-76
2022/08/15 01:08:53;;;;;;;13.25;3.25;;;;;;;21.56;66.86;97926.69;5115123;27;20051;-76
2022/08/15 01:11:26;;;;;;;6.47;3.05;;;;;;;21.40;68.60;97901.06;5124656;27;20066;-76
2022/08/15 01:13:55;;;;;;;7.07;2.33;;;;;;;21.37;68.30;97898.88;5113129;27;20043;-76
2022/08/15 01:16:25;;;;;;;6.10;3.00;;;;;;;21.35;68.08;97899.16;5115354;27;20462;-76
2022/08/15 01:18:52;;;;;;;8.98;2.53;;;;;;;21.37;69.23;97905.22;5114553;27;20051;-76
2022/08/15 01:21:28;;;;;;;4.90;3.75;;;;;;;21.39;70.71;97922.34;5122356;27;20055;-76
2022/08/15 01:24:04;;;;;;;6.60;2.53;;;;;;;21.35;69.80;97912.97;5117739;27;20050;-76
2022/08/15 01:26:33;;;;;;;10.32;3.10;;;;;;;21.38;70.71;97920.69;5113577;27;20316;-76
2022/08/15 01:29:01;;;;;;;5.78;2.60;;;;;;;21.25;70.53;97899.22;5114078;27;20086;-76
2022/08/15 01:31:29;;;;;;;6.93;2.40;;;;;;;21.32;70.74;97918.25;5122483;27;20486;-76
2022/08/15 01:33:58;;;;;;;5.78;2.65;;;;;;;21.16;69.44;97910.03;5114538;27;20050;-76
2022/08/15 01:36:27;;;;;;;7.93;3.00;;;;;;;21.12;69.06;97897.06;5117160;27;20062;-76
2022/08/15 01:39:02;;;;;;;8.77;2.97;;;;;;;21.39;69.28;97927.03;5119582;27;20047;-76
2022/08/15 01:41:36;;;;;;;3.42;2.38;;;;;;;21.29;68.55;97896.72;5113526;27;20135;-75
2022/08/15 01:44:11;;;;;;;3.55;2.45;;;;;;;21.35;68.45;97918.50;5117415;27;20051;-76
2022/08/15 01:46:43;;;;;;;6.18;2.97;;;;;;;21.38;70.82;97944.75;5129682;27;20047;-76
2022/08/15 01:49:13;;;;;;;9.77;3.05;;;;;;;21.08;72.04;97913.41;5113213;27;20688;-76
2022/08/15 01:51:40;;;;;;;;;;;;;;;21.08;73.06;97946.56;5124802;27;20047;-76
2022/08/15 01:54:10;;;;;;;5.97;2.90;;;;;;;20.89;74.76;97921.50;5119967;27;19926;-76
2022/08/15 01:56:41;;;;;;;6.53;2.88;;;;;;;20.96;75.56;97941.38;5130167;27;20066;-76
2022/08/15 01:59:12;;;;;;;5.70;2.65;;;;;;;20.82;73.67;97913.53;5124218;27;20042;-76
2022/08/15 02:01:44;;;;;;;8.40;2.53;;;;;;;20.75;75.34;97943.38;5127877;27;20046;-76
2022/08/15 02:04:12;;;;;;;7.68;3.58;;;;;;;20.76;75.85;97928.47;5123169;27;20039;-76
2022/08/15 02:06:40;;;;;;;5.32;3.05;;;;;;;20.88;76.40;97950.25;5116988;27;20498;-76
2022/08/15 02:09:08;;;;;;;4.38;2.97;;;;;;;20.82;78.69;97954.97;5124457;27;20043;-76
2022/08/15 02:11:35;;;;;;;5.68;2.50;;;;;;;20.55;78.82;97929.59;5122421;27;20044;-76
2022/08/15 02:14:03;;;;;;;8.38;3.10;;;;;;;20.66;76.91;97937.59;5116461;27;20047;-76
2022/08/15 02:16:35;;;;;;;6.22;2.90;;;;;;;20.58;77.61;97924.34;5119401;27;20052;-76
2022/08/15 02:19:02;;;;;;;6.60;3.17;;;;;;;20.46;80.96;97923.81;5124254;27;20090;-76
2022/08/15 02:21:29;;;;;;;6.45;3.50;;;;;;;20.39;82.82;97937.09;5122218;27;20125;-76
2022/08/15 02:23:56;;;;;;;4.85;2.85;;;;;;;20.47;82.97;97951.16;5126896;27;20058;-76
2022/08/15 02:26:22;;;;;;;5.30;2.83;;;;;;;20.19;83.10;97926.91;5119223;27;20398;-76
2022/08/15 02:28:50;;;;;;;8.82;2.83;;;;;;;20.42;82.78;97964.97;5122266;27;20057;-76
2022/08/15 02:31:22;;;;;;;5.38;3.05;;;;;;;20.44;82.17;97971.00;5123695;27;20048;-76
2022/08/15 02:33:53;;;;;;;6.78;2.40;;;;;;;20.50;78.50;97963.56;5116556;27;20486;-76
2022/08/15 02:36:20;;;;;;;5.82;3.35;;;;;;;20.55;77.04;97959.97;5123518;27;20054;-76
2022/08/15 02:38:49;;;;;;;3.22;2.63;;;;;;;20.31;77.15;97939.31;5127359;27;20050;-76
2022/08/15 02:41:21;;;;;;;4.13;2.83;;;;;;;20.48;74.25;97957.50;5123544;27;20043;-76
2022/08/15 02:43:48;;;;;;;5.22;2.63;;;;;;;20.34;74.95;97943.47;5124760;28;20103;-76
2022/08/15 02:46:16;;;;;;;5.30;2.53;;;;;;;20.58;74.53;97968.53;5122226;28;20055;-76
2022/08/15 02:48:46;;;;;;;6.57;3.00;;;;;;;20.51;74.90;97971.56;5127115;27;20070;-76
2022/08/15 02:51:15;;;;;;;5.30;3.00;;;;;;;20.42;75.30;97945.63;5118729;27;20046;-76
2022/08/15 02:53:43;;;;;;;4.95;2.65;;;;;;;20.60;73.93;97965.47;5124733;28;20047;-76
2022/08/15 02:56:10;;;;;;;4.35;2.88;;;;;;;20.45;77.77;97955.31;5120932;28;20047;-76
2022/08/15 02:58:37;;;;;;;4.68;2.83;;;;;;;20.37;77.72;97947.56;5122118;28;20534;-75
2022/08/15 03:01:08;;;;;;;5.28;2.47;;;;;;;20.51;78.29;97977.09;5125638;28;20612;-76
2022/08/15 03:03:38;;;;;;;5.13;3.25;;;;;;;20.49;78.09;97971.03;5118891;28;20120;-76
2022/08/15 03:06:08;;;;;;;5.05;2.83;;;;;;;20.21;79.47;97933.81;5122163;28;20082;-76
2022/08/15 03:08:35;;;;;;;3.50;2.58;;;;;;;20.43;79.90;97969.38;5125670;28;20131;-76
2022/08/15 03:11:02;;;;;;;5.07;2.80;;;;;;;20.08;83.13;97937.97;5128021;28;20044;-76
2022/08/15 03:13:29;;;;;;;3.67;2.95;;;;;;;20.00;83.34;97946.78;5123659;28;20399;-76
2022/08/15 03:15:56;;;;;;;9.65;2.97;;;;;;;20.15;82.19;97959.75;5122851;28;20066;-76
2022/08/15 03:18:25;;;;;;;7.45;3.25;;;;;;;20.28;80.61;97981.25;5116837;27;20054;-76
2022/08/15 03:20:52;;;;;;;6.35;3.97;;;;;;;20.31;80.22;97982.66;5124032;28;20502;-76
2022/08/15 03:23:21;;;;;;;5.55;2.70;;;;;;;20.38;77.72;97974.06;5122162;27;20059;-76
2022/08/15 03:25:51;;;;;;;5.75;3.35;;;;;;;20.34;77.16;97954.50;5116381;28;20062;-76
2022/08/15 03:28:18;;;;;;;7.72;3.25;;;;;;;20.27;79.12;97960.28;5120997;28;20058;-76
2022/08/15 03:30:45;;;;;;;6.35;2.75;;;;;;;20.08;78.77;97931.59;5119570;27;20043;-76
2022/08/15 03:33:11;;;;;;;4.25;2.60;;;;;;;19.97;81.03;97936.31;5126347;27;20065;-76
2022/08/15 03:35:40;;;;;;;7.13;2.92;;;;;;;19.96;81.90;97938.25;5120156;27;20066;-76
2022/08/15 03:38:07;;;;;;;5.22;3.03;;;;;;;19.93;83.61;97960.00;5125578;27;20448;-76
2022/08/15 03:40:36;;;;;;;4.20;3.15;;;;;;;20.04;81.17;97963.59;5127844;27;20048;-76
2022/08/15 03:43:05;;;;;;;6.57;2.85;;;;;;;19.96;79.15;97948.44;5127274;27;20047;-76
2022/08/15 03:45:33;;;;;;;5.07;3.00;;;;;;;20.03;78.53;97976.56;5129390;27;20082;-76
2022/08/15 03:48:00;;;;;;;4.43;3.00;;;;;;;19.77;81.57;97954.50;5132372;27;20047;-76
2022/08/15 03:50:27;;;;;;;4.00;3.33;;;;;;;19.81;82.94;97960.28;5114755;27;20078;-76
2022/08/15 03:52:57;;;;;;;6.03;3.28;;;;;;;19.76;83.24;97957.50;5129512;27;20127;-76
2022/08/15 03:55:25;;;;;;;6.55;2.95;;;;;;;19.89;82.33;97992.03;5130629;27;20062;-76
2022/08/15 03:57:54;;;;;;;7.40;3.40;;;;;;;19.65;81.76;97953.91;5129373;27;20054;-76
2022/08/15 04:00:23;;;;;;;4.32;3.15;;;;;;;19.70;81.07;97967.69;5123955;27;20503;-76
2022/08/15 04:02:50;;;;;;;4.57;2.88;;;;;;;19.59;80.80;97955.81;5131687;27;20047;-76
2022/08/15 04:05:17;;;;;;;3.92;3.17;;;;;;;19.54;79.51;97946.72;5126195;27;20044;-76
2022/08/15 04:07:44;;;;;;;9.25;3.28;;;;;;;19.67;79.19;97972.94;5121709;27;20058;-76
2022/08/15 04:10:13;;;;;;;4.82;3.13;;;;;;;19.61;80.83;97983.94;5117266;27;20406;-76
2022/08/15 04:12:42;;;;;;;7.38;3.45;;;;;;;19.46;81.86;97964.63;5131803;27;20274;-75
2022/08/15 04:15:15;;;;;;;6.93;3.22;;;;;;;19.56;81.72;97975.66;5125028;27;20067;-76
2022/08/15 04:17:42;;;;;;;4.28;3.00;;;;;;;19.44;82.15;97956.63;5127031;27;20073;-76
2022/08/15 04:20:11;;;;;;;7.43;3.28;;;;;;;19.59;81.69;97982.56;5118157;27;20058;-76
2022/08/15 04:22:41;;;;;;;5.35;3.13;;;;;;;19.35;84.25;97951.94;5118338;27;20058;-76
2022/08/15 04:25:10;;;;;;;;;;;;;;;19.53;83.23;97981.72;5113465;27;20058;-76
2022/08/15 04:27:36;;;;;;;4.40;3.28;;;;;;;19.40;82.72;97954.69;5115250;27;19919;-76
2022/08/15 04:30:04;;;;;;;6.05;3.08;;;;;;;19.43;82.75;97963.22;5119585;27;20495;-76
2022/08/15 04:32:32;;;;;;;3.78;3.08;;;;;;;19.65;81.75;97989.75;5122417;27;20048;-76
2022/08/15 04:35:00;;;;;;;5.93;3.53;;;;;;;19.63;83.88;97978.16;5112722;27;20152;-76
2022/08/15 04:37:28;;;;;;;4.25;3.25;;;;;;;19.67;83.71;97981.22;5115856;27;20051;-76
2022/08/15 04:39:56;;;;;;;5.18;3.25;;;;;;;19.60;82.16;97974.03;5115329;27;20058;-76
2022/08/15 04:42:24;;;;;;;5.13;2.90;;;;;;;19.77;82.20;97986.75;5114334;27;20427;-76
2022/08/15 04:44:51;;;;;;;3.60;3.30;;;;;;;19.66;85.33;97971.28;5115999;27;20081;-76
2022/08/15 04:47:18;;;;;;;5.13;3.38;;;;;;;19.71;85.78;97988.66;5124492;27;20074;-76
2022/08/15 04:49:46;;;;;;;9.27;4.00;;;;;;;19.45;85.59;97952.78;5117330;27;20062;-76
2022/08/15 04:52:16;;;;;;;5.97;3.70;;;;;;;19.47;86.52;97963.53;5121328;27;20404;-76
2022/08/15 04:54:43;;;;;;;5.40;3.25;;;;;;;19.52;86.23;97955.25;5122725;27;20043;-75
2022/08/15 04:57:12;;;;;;;3.55;3.25;;;;;;;19.77;84.65;97989.50;5118598;27;20132;-76
2022/08/15 04:59:39;;;;;;;4.53;3.17;;;;;;;19.77;84.46;97967.44;5128451;27;20120;-77
2022/08/15 05:02:08;;;;;;;4.20;3.15;;;;;;;19.94;83.17;97987.31;5115065;27;20079;-77
2022/08/15 05:04:35;;;;;;;5.80;3.50;;;;;;;20.03;83.91;98012.44;5122845;27;20051;-76
2022/08/15 05:07:03;;;;;;;11.48;3.72;;;;;;;20.03;85.64;98004.16;5119432;27;20054;-77
2022/08/15 05:09:30;;;;;;;7.68;3.42;;;;;;;19.98;84.23;97993.97;5120929;27;20051;-76
2022/08/15 05:11:57;;;;;;;8.43;3.20;;;;;;;20.13;83.27;98014.38;5119007;27;20513;-76
2022/08/15 05:14:24;;;;;;;5.97;3.75;;;;;;;19.92;81.82;97980.44;5116527;27;20518;-77
2022/08/15 05:16:50;;;;;;;4.85;3.88;;;;;;;20.01;79.24;97983.47;5121975;27;20047;-77
2022/08/15 05:19:17;;;;;;;6.47;3.30;;;;;;;19.96;79.18;97981.53;5120772;27;20062;-77
2022/08/15 05:21:43;;;;;;;7.53;2.92;;;;;;;20.07;79.51;97974.13;5113943;27;20048;-76
2022/08/15 05:24:11;;;;;;;3.78;2.40;;;;;;;20.43;79.51;98009.94;5132561;27;20045;-77
2022/08/15 05:26:38;;;;;;;5.95;2.70;;;;;;;20.30;80.27;97990.09;5127878;27;20116;-77
2022/08/15 05:29:06;;;;;;;6.28;2.55;;;;;;;20.43;79.67;98004.41;5114827;27;20039;-76
2022/08/15 05:31:32;;;;;;;4.30;1.98;;;;;;;20.44;80.13;97978.47;5117936;27;20058;-77
2022/08/15 05:34:01;;;;;;;4.22;2.33;;;;;;;20.46;80.41;97988.16;5127935;27;20052;-78
2022/08/15 05:36:28;;;;;;;4.43;2.22;;;;;;;20.60;80.10;97998.63;5127684;27;20047;-77
2022/08/15 05:38:59;;;;;;;3.78;2.10;;;;;;;20.55;79.83;97993.09;5125627;27;20055;-76
2022/08/15 05:41:31;;;;;;;3.90;2.00;;;;;;;20.72;79.20;98010.22;5129701;27;20479;-76
2022/08/15 05:44:02;;;;;;;2.50;1.88;;;;;;;20.72;78.75;97976.25;5114564;27;20054;-76
2022/08/15 05:46:43;;;;;;;4.82;2.42;;;;;;;20.96;77.72;97996.63;5124164;27;20055;-76
2022/08/15 05:49:23;;;;;;;6.07;3.05;;;;;;;21.04;77.88;97989.66;5123935;27;20050;-76
2022/08/15 05:52:02;;;;;;;3.17;1.98;;;;;;;20.93;77.05;97968.75;5117514;27;20039;-77
2022/08/15 05:54:41;;;;;;;8.05;2.28;;;;;;;21.16;76.74;97992.13;5122384;27;20050;-77
2022/08/15 05:57:16;;;;;;;4.50;1.75;;;;;;;21.02;76.71;97975.31;5121792;27;20418;-76
2022/08/15 05:59:56;;;;;;;5.00;2.30;;;;;;;21.13;76.75;97995.44;5119374;27;20505;-77
2022/08/15 06:02:28;;;;;;;5.25;1.60;;;;;;;21.01;77.06;97973.66;5121466;27;20502;-76
2022/08/15 06:05:03;;;;;;;3.83;1.60;;;;;;;21.15;76.83;98007.88;5117914;27;20043;-76
2022/08/15 06:07:31;;;;;;;4.20;2.20;;;;;;;20.93;76.98;97974.25;5128353;27;20043;-77
2022/08/15 06:10:02;;;;;;;4.45;2.05;;;;;;;20.95;77.12;97981.13;5119548;27;20039;-77
2022/08/15 06:12:38;;;;;;;3.22;1.80;;;;;;;21.24;76.51;97988.75;5123439;27;20048;-77
2022/08/15 06:15:17;;;;;;;2.88;1.80;;;;;;;21.34;76.29;97993.41;5122320;27;20043;-77
2022/08/15 06:17:49;;;;;;;5.72;2.10;;;;;;;21.27;76.36;97992.91;5122266;27;20455;-77
2022/08/15 06:20:20;;;;;;;5.28;1.88;;;;;;;21.24;76.10;97963.88;5117358;27;20078;-77
2022/08/15 06:22:55;;;;;;;5.03;1.70;;;;;;;21.27;75.36;97963.31;5114615;27;20074;-76
2022/08/15 06:25:31;;;;;;;5.47;1.70;;;;;;;21.24;76.30;97994.28;5124881;27;20052;-76
2022/08/15 06:28:14;;;;;;;2.92;2.10;;;;;;;21.28;76.13;97973.25;5121845;27;20074;-77
2022/08/15 06:30:48;;;;;;;3.25;1.92;;;;;;;21.32;76.14;97979.88;5124141;27;20051;-77
2022/08/15 06:33:29;;;;;;;2.83;1.63;;;;;;;21.42;75.56;97976.22;5125999;27;20046;-77
2022/08/15 06:36:04;;;;;;;2.38;1.63;;;;;;;21.54;74.72;97993.34;5120108;27;20125;-77
2022/08/15 06:38:44;;;;;;;2.55;2.10;;;;;;;21.58;75.07;97981.72;5112837;27;20047;-77
2022/08/15 06:41:26;;;;;;;2.90;1.70;;;;;;;21.44;74.41;97953.81;5122568;27;20047;-76
2022/08/15 06:43:54;;;;;;;7.25;2.78;;;;;;;21.49;74.56;97982.28;5119988;27;20052;-77
2022/08/15 06:46:25;;;;;;;4.00;1.90;;;;;;;21.65;74.26;97996.88;5123983;28;20043;-77
2022/08/15 06:48:51;;;;;;;4.15;1.77;;;;;;;21.65;73.71;98002.41;5123492;28;20063;-77
2022/08/15 06:51:18;;;;;;;5.28;1.85;;;;;;;21.52;73.57;98001.09;5124927;28;20039;-77
2022/08/15 06:53:49;;;;;;;8.93;2.08;;;;;;;21.54;74.92;98000.81;5128352;28;20605;-77
2022/08/15 06:56:24;;;;;;;6.32;2.53;;;;;;;21.46;74.84;97993.91;5126232;28;20050;-77
2022/08/15 06:58:58;;;;;;;5.07;2.20;;;;;;;21.56;74.14;98015.19;5123777;27;20132;-77
2022/08/15 07:01:36;;;;;;;4.53;1.80;;;;;;;21.58;74.17;98012.13;5121134;27;20503;-76
2022/08/15 07:04:10;;;;;;;6.57;2.00;;;;;;;21.54;74.39;97998.88;5113081;28;20125;-77
2022/08/15 07:06:42;;;;;;;4.70;2.15;;;;;;;21.58;74.29;98014.91;5125804;28;20047;-77
2022/08/15 07:09:33;;;;;;;5.20;1.80;;;;;;;21.39;75.14;98024.63;5129635;27;20517;-77
2022/08/15 07:12:10;;;;;;;3.50;2.08;;;;;;;21.35;75.61;98040.13;5131733;27;20044;-77
2022/08/15 07:14:54;;;;;;;3.92;1.80;;;;;;;21.27;81.60;98035.16;5121393;27;20054;-77
2022/08/15 07:17:26;;;;;;;6.78;2.28;;;;;;;21.11;81.34;98012.31;5132331;27;20130;-76
2022/08/15 07:19:53;;;;;;;2.67;1.95;;;;;;;21.25;80.98;98025.53;5128793;27;20394;-76
2022/08/15 07:22:20;;;;;;;2.70;1.88;;;;;;;21.18;81.84;98015.59;5123583;27;20047;-76
2022/08/15 07:24:51;;;;;;;4.90;2.05;;;;;;;21.37;81.68;98042.59;5116698;27;20126;-76
2022/08/15 07:27:19;;;;;;;2.53;1.65;;;;;;;21.38;79.06;98036.78;5115837;27;20044;-76
2022/08/15 07:29:49;;;;;;;3.53;2.10;;;;;;;21.62;77.72;98040.84;5118578;27;20050;-76
2022/08/15 07:32:25;;;;;;;8.32;2.28;;;;;;;21.55;76.48;98016.28;5120811;27;20050;-77
2022/08/15 07:34:58;;;;;;;4.10;2.28;;;;;;;21.89;75.17;98048.75;5120248;27;20053;-76
2022/08/15 07:37:26;;;;;;;5.03;2.53;;;;;;;21.80;73.68;98036.59;5117103;27;20415;-76
2022/08/15 07:40:07;;;;;;;3.65;2.00;;;;;;;21.93;73.81;98041.50;5122018;27;20479;-77
2022/08/15 07:42:41;;;;;;;3.35;2.10;;;;;;;21.76;74.17;98013.41;5120987;27;20399;-77
2022/08/15 07:45:15;;;;;;;2.60;1.98;;;;;;;21.79;73.39;98046.84;5125242;27;20142;-76
2022/08/15 07:47:55;;;;;;;4.18;2.20;;;;;;;21.61;72.94;98030.91;5124297;27;20051;-76
2022/08/15 07:50:37;;;;;;;3.92;1.90;;;;;;;21.60;72.46;98054.97;5124654;27;20043;-77
2022/08/15 07:53:11;;;;;;;9.82;2.22;;;;;;;21.67;71.46;98032.53;5125470;27;20370;-77
2022/08/15 07:55:39;;;;;;;4.55;2.08;;;;;;;22.37;66.86;98035.13;5128917;27;20043;-77
2022/08/15 07:58:14;;;;;;;5.05;1.83;;;;;;;22.82;64.84;98029.44;5125685;27;20489;-77
2022/08/15 08:00:51;;;;;;;6.05;2.00;;;;;;;23.50;61.32;98033.09;5128878;27;20047;-77
2022/08/15 08:03:22;;;;;;;3.25;1.92;;;;;;;23.97;60.36;98025.00;5125529;27;20414;-77
2022/08/15 08:05:57;;;;;;;4.13;1.67;;;;;;;24.64;58.39;98052.53;5120744;27;20482;-76
2022/08/15 08:08:29;;;;;;;7.53;2.90;;;;;;;24.60;59.58;98023.72;5127337;27;20478;-77
2022/08/15 08:11:03;;;;;;;5.18;1.95;;;;;;;24.84;58.57;98026.34;5132509;27;20049;-77
2022/08/15 08:13:42;;;;;;;3.78;1.95;;;;;;;25.14;57.95;98031.63;5116489;27;20083;-77
2022/08/15 08:16:19;;;;;;;5.45;1.80;;;;;;;24.42;59.51;98041.22;5131839;27;20128;-77
2022/08/15 08:18:56;;;;;;;2.55;1.80;;;;;;;24.16;60.35;98036.09;5126413;27;20042;-78
2022/08/15 08:21:30;;;;;;;2.65;1.88;;;;;;;23.81;61.72;98058.47;5119857;27;20043;-77
2022/08/15 08:24:03;;;;;;;4.50;2.10;;;;;;;23.36;62.09;98074.59;5114790;27;20054;-76
2022/08/15 08:26:36;;;;;;;4.40;2.13;;;;;;;23.09;64.67;98070.47;5120237;27;20086;-77
2022/08/15 08:29:09;;;;;;;3.53;2.47;;;;;;;23.03;67.11;98057.75;5126963;27;20133;-77
2022/08/15 08:31:47;;;;;;;3.67;2.17;;;;;;;23.15;66.50;98069.31;5126240;27;20055;-77
2022/08/15 08:34:22;;;;;;;5.00;2.17;;;;;;;23.55;63.72;98063.56;5127609;27;20402;-77
2022/08/15 08:37:02;;;;;;;2.97;2.00;;;;;;;23.74;62.28;98052.50;5123689;27;20058;-77
2022/08/15 08:39:40;;;;;;;5.03;2.20;;;;;;;23.65;63.13;98077.31;5118512;27;21504;-77
2022/08/15 08:42:19;;;;;;;2.70;1.98;;;;;;;23.57;62.86;98052.16;5117814;27;20050;-77
2022/08/15 08:44:54;;;;;;;3.78;2.05;;;;;;;23.65;62.06;98065.38;5120061;27;20055;-77
2022/08/15 08:47:33;;;;;;;2.33;2.10;;;;;;;23.96;59.64;98049.16;5119591;27;20048;-77
2022/08/15 08:50:19;;;;;;;3.75;2.22;;;;;;;24.34;58.64;98056.63;5119845;27;20505;-77
2022/08/15 08:52:58;;;;;;;3.13;1.88;;;;;;;24.19;58.94;98029.94;5123502;27;20052;-77
2022/08/15 08:55:29;;;;;;;4.20;2.03;;;;;;;24.48;58.79;98071.41;5124702;27;20407;-77
2022/08/15 08:58:02;;;;;;;9.27;2.25;;;;;;;24.44;58.47;98064.78;5121151;27;20040;-77
2022/08/15 09:00:37;;;;;;;3.75;2.00;;;;;;;24.39;57.74;98062.13;5128832;27;20052;-77
2022/08/15 09:03:14;;;;;;;3.20;2.00;;;;;;;24.48;57.50;98042.78;5114773;27;20127;-76
2022/08/15 09:05:51;;;;;;;2.50;2.25;;;;;;;24.37;57.63;98044.91;5127427;27;20409;-77
2022/08/15 09:08:24;;;;;;;4.32;2.40;;;;;;;24.23;58.39;98046.81;5129877;27;20046;-77
2022/08/15 09:10:55;;;;;;;3.60;2.15;;;;;;;24.25;57.92;98039.00;5119407;27;20122;-78
2022/08/15 09:13:35;;;;;;;4.50;2.25;;;;;;;23.81;58.63;98047.38;5123474;27;20640;-78
2022/08/15 09:16:09;;;;;;;5.65;2.15;;;;;;;23.64;59.58;98047.91;5112506;27;20054;-78
2022/08/15 09:18:42;;;;;;;2.17;1.83;;;;;;;23.84;59.59;98068.97;5128138;27;20095;-77
2022/08/15 09:21:10;;;;;;;5.15;2.55;;;;;;;23.73;60.10;98044.47;5125205;27;20061;-77
2022/08/15 09:23:40;;;;;;;3.78;1.90;;;;;;;24.12;59.07;98054.50;5122102;27;20050;-77
2022/08/15 09:26:14;;;;;;;3.05;2.00;;;;;;;24.18;58.18;98072.72;5113483;27;20047;-77
2022/08/15 09:28:44;;;;;;;6.35;2.30;;;;;;;24.27;57.09;98062.56;5128573;27;20130;-78
2022/08/15 09:31:14;;;;;;;6.65;3.53;;;;;;;24.20;56.32;98049.06;5123828;27;20058;-77
2022/08/15 09:34:28;;;;;;;2.45;1.63;;;;;;;24.16;55.58;98055.53;5124940;27;20048;-76
2022/08/15 09:37:10;;;;;;;4.45;1.48;;;;;;;24.58;53.57;98050.13;5099207;27;20503;-77
2022/08/15 09:39:55;;;;;;;3.00;1.52;;;;;;;24.46;54.43;98062.53;5124435;27;20047;-77
2022/08/15 09:42:46;;;;;;;4.05;2.03;;;;;;;24.66;53.32;98044.75;5121961;27;20077;-77
2022/08/15 09:45:34;;;;;;;2.50;1.60;;;;;;;25.02;52.59;98040.47;5120973;27;20150;-77
2022/08/15 09:48:32;;;;;;;3.03;1.30;;;;;;;24.80;52.91;98033.66;5120202;27;20409;-77
2022/08/15 09:51:25;;;;;;;6.82;1.77;;;;;;;25.34;51.92;98044.34;5117601;27;20053;-76
2022/08/15 09:54:06;;;;;;;2.50;2.10;;;;;;;25.24;50.74;98036.97;5116306;27;20122;-76
2022/08/15 09:56:37;;;;;;;2.63;1.00;;;;;;;24.84;49.67;98034.69;5119821;27;20419;-77
2022/08/15 09:59:17;;;;;;;7.15;1.85;;;;;;;25.11;49.51;98048.91;5124947;27;20440;-76
2022/08/15 10:01:47;;;;;;;3.13;1.20;;;;;;;25.73;48.37;98031.78;5124854;27;20043;-76
2022/08/15 10:04:18;;;;;;;1.83;1.30;;;;;;;25.38;47.98;98034.22;5116714;27;20054;-77
2022/08/15 10:06:53;;;;;;;4.55;1.10;;;;;;;25.45;47.99;98023.50;5115681;27;20054;-76
2022/08/15 10:09:33;;;;;;;1.52;1.25;;;;;;;25.68;47.37;98018.00;5129241;27;20051;-76
2022/08/15 10:12:21;;;;;;;5.47;1.33;;;;;;;26.06;46.61;98010.19;5121151;27;20668;-77
2022/08/15 10:15:05;;;;;;;4.68;1.50;;;;;;;25.58;47.08;98025.44;5121394;27;20039;-77
2022/08/15 10:17:43;;;;;;;2.90;1.20;;;;;;;25.56;47.25;98024.09;5121763;27;20130;-76
2022/08/15 10:20:49;;;;;;;2.17;1.33;;;;;;;25.87;46.72;98023.44;5133073;27;20050;-76
2022/08/15 10:23:17;;;;;;;4.80;1.05;;;;;;;25.87;46.52;98021.47;5127755;27;20483;-76
2022/08/15 10:25:48;;;;;;;3.85;1.10;;;;;;;25.34;47.01;98010.97;5118493;27;20057;-76
2022/08/15 10:28:23;;;;;;;3.05;1.38;;;;;;;25.49;47.39;98020.91;5125243;27;20125;-76
2022/08/15 10:31:25;;;;;;;4.22;1.52;;;;;;;25.89;46.38;98026.72;5118998;27;20490;-75
2022/08/15 10:33:53;;;;;;;3.63;1.00;;;;;;;25.88;46.90;98011.13;5110097;28;20040;-76
2022/08/15 10:36:26;;;;;;;2.92;1.05;;;;;;;26.20;46.09;98012.94;5110947;28;20085;-76
2022/08/15 10:39:09;;;;;;;5.72;1.27;;;;;;;26.67;44.18;98015.38;5119959;27;20039;-76
2022/08/15 10:41:50;;;;;;;2.60;1.25;;;;;;;26.16;44.23;97989.63;5111072;28;20043;-76
2022/08/15 10:44:32;;;;;;;1.20;1.10;;;;;;;26.05;44.64;97986.25;5115766;27;20085;-76
2022/08/15 10:47:14;;;;;;;3.28;1.05;;;;;;;26.57;44.67;97982.19;5110859;27;20047;-76
2022/08/15 10:50:01;;;;;;;2.40;1.10;;;;;;;26.97;42.95;97985.84;5120476;28;20097;-76
2022/08/15 10:52:39;;;;;;;2.20;1.30;;;;;;;27.25;42.34;97999.59;5112934;27;20054;-77
2022/08/15 10:55:22;;;;;;;6.07;1.33;;;;;;;27.20;41.44;97971.81;5110701;28;20145;-77
2022/08/15 10:57:52;;;;;;;2.00;1.15;;;;;;;27.59;41.24;97975.69;5112977;28;20062;-77
2022/08/15 11:00:37;;;;;;;5.13;1.25;;;;;;;27.05;41.56;97972.28;5116484;27;20414;-77
2022/08/15 11:03:07;;;;;;;3.28;1.25;;;;;;;27.47;41.17;97967.97;5123718;28;20062;-77
2022/08/15 11:05:34;;;;;;;;;;;;;;;27.68;40.79;97993.28;5129806;28;20430;-77
2022/08/15 11:08:00;;;;;;;1.10;1.00;;;;;;;27.66;40.99;97964.06;5123557;28;19920;-77
2022/08/15 11:10:30;;;;;;;5.53;1.38;;;;;;;27.75;40.72;97992.81;5114614;28;20048;-77
2022/08/15 11:13:06;;;;;;;2.75;1.17;;;;;;;27.55;39.81;97986.72;5109545;28;20415;-77
2022/08/15 11:15:46;;;;;;;4.70;1.65;;;;;;;27.92;40.13;97985.59;5110746;28;20048;-77
2022/08/15 11:18:13;;;;;;;4.05;1.17;;;;;;;27.77;39.21;97972.94;5110041;28;20104;-78
2022/08/15 11:20:50;;;;;;;1.30;1.20;;;;;;;27.96;39.12;97964.22;5117945;28;20047;-77
2022/08/15 11:23:31;;;;;;;4.30;1.38;;;;;;;28.04;38.06;97974.63;5110026;28;20047;-77
2022/08/15 11:25:58;;;;;;;3.20;1.50;;;;;;;27.82;38.56;97969.97;5110721;28;20069;-78
2022/08/15 11:28:29;;;;;;;1.25;1.15;;;;;;;28.05;39.28;97984.66;5110636;28;20074;-77
2022/08/15 11:31:01;;;;;;;4.97;1.50;;;;;;;28.28;38.82;97982.47;5112050;28;20495;-77
2022/08/15 11:33:40;;;;;;;2.17;1.17;;;;;;;28.19;39.09;97970.50;5124253;28;21520;-77
2022/08/15 11:36:11;;;;;;;1.30;1.03;;;;;;;28.53;38.04;97960.38;5117564;28;20048;-77
2022/08/15 11:38:45;;;;;;;4.43;1.33;;;;;;;28.38;37.96;97951.41;5110416;28;20052;-77
2022/08/15 11:41:21;;;;;;;4.72;1.50;;;;;;;28.80;37.17;97962.00;5113382;28;20399;-79
2022/08/15 11:43:50;;;;;;;3.10;1.67;;;;;;;28.98;37.61;97976.72;5113267;27;20129;-77
2022/08/15 11:46:18;;;;;;;;;;;;;;;28.88;37.88;97974.31;5126430;28;20046;-77
2022/08/15 11:48:49;;;;;;;3.30;1.40;;;;;;;28.86;36.87;97968.22;5120930;27;19931;-77
2022/08/15 11:51:27;;;;;;;2.35;1.30;;;;;;;28.78;37.20;97967.94;5124790;28;20047;-77
2022/08/15 11:54:07;;;;;;;1.17;1.08;;;;;;;28.95;37.74;97964.22;5121125;28;20047;-77
2022/08/15 11:56:49;;;;;;;2.90;1.40;;;;;;;28.88;36.89;97961.13;5113891;27;20055;-77
2022/08/15 11:59:21;;;;;;;2.30;1.20;;;;;;;29.25;36.81;97966.25;5122361;27;20418;-77
2022/08/15 12:02:08;;;;;;;2.60;1.40;;;;;;;29.20;36.67;97939.25;5120682;27;20054;-77